createdAt,value
2022-10-02T00:05:29.314Z,-28.8
2022-10-02T00:07:31.148Z,-29
2022-10-02T00:09:32.525Z,-28.8
2022-10-02T00:11:34.057Z,-28.7
2022-10-02T00:13:35.951Z,-28.8
2022-10-02T00:15:37.406Z,-27.1
2022-10-02T00:17:38.670Z,-27.2
2022-10-02T00:19:40.360Z,-29
2022-10-02T00:21:42.091Z,-27.1
2022-10-02T00:23:43.261Z,-28.7
2022-10-02T00:25:44.400Z,-28.8
2022-10-02T00:27:45.963Z,-28.6
2022-10-02T00:29:47.788Z,-28.9
2022-10-02T00:31:49.093Z,-28.9
2022-10-02T00:33:50.931Z,-28.8
2022-10-02T00:35:51.928Z,-28.7
2022-10-02T00:37:53.052Z,-29
2022-10-02T00:41:56.084Z,-28.9
2022-10-02T00:43:57.082Z,-27.4
2022-10-02T00:45:58.203Z,-28.7
2022-10-02T00:47:59.831Z,-28.9
2022-10-02T00:50:01.328Z,-29
2022-10-02T00:52:02.917Z,-28.6
2022-10-02T00:54:04.592Z,-28.9
2022-10-02T00:56:06.454Z,-28.9
2022-10-02T00:58:07.496Z,-28.7
2022-10-02T01:02:10.291Z,-29.1
2022-10-02T01:04:11.791Z,-28.9
2022-10-02T01:06:13.138Z,-28.7
2022-10-02T01:08:14.527Z,-29
2022-10-02T01:12:17.523Z,-29
2022-10-02T01:14:19.329Z,-28.7
2022-10-02T01:16:20.275Z,-28.8
2022-10-02T01:18:21.313Z,-28.7
2022-10-02T01:20:23.015Z,-28.7
2022-10-02T01:24:26.275Z,-28.5
2022-10-02T01:26:27.550Z,-28.7
2022-10-02T01:28:28.619Z,-28.8
2022-10-02T01:30:29.637Z,-28.6
2022-10-02T01:32:30.578Z,-28.9
2022-10-02T01:34:32.220Z,-28.6
2022-10-02T01:36:34.006Z,-28.8
2022-10-02T01:38:35.286Z,-28.6
2022-10-02T01:40:36.442Z,-28.5
2022-10-02T01:42:38.033Z,-28.4
2022-10-02T01:46:41.292Z,-28.5
2022-10-02T01:50:43.411Z,-28.6
2022-10-02T01:52:44.674Z,-28.7
2022-10-02T01:54:46.402Z,-28.7
2022-10-02T01:56:47.337Z,-28.6
2022-10-02T02:00:49.839Z,-28.6
2022-10-02T02:02:51.078Z,-28.7
2022-10-02T02:04:52.397Z,-28.7
2022-10-02T02:06:54.023Z,-28.9
2022-10-02T02:08:57.436Z,-28.8
2022-10-02T02:10:56.033Z,-28.6
2022-10-02T02:12:57.666Z,-28.6
2022-10-02T02:16:59.884Z,-29
2022-10-02T02:19:01.300Z,-28.8
2022-10-02T02:21:02.406Z,-29
2022-10-02T02:23:03.316Z,-28.9
2022-10-02T02:29:07.855Z,-29
2022-10-02T02:31:09.500Z,-29
2022-10-02T02:33:10.586Z,-29.2
2022-10-02T02:35:11.597Z,-29.1
2022-10-02T02:37:12.581Z,-28.8
2022-10-02T02:39:13.937Z,-28.8
2022-10-02T02:43:16.269Z,-28.8
2022-10-02T02:45:18.139Z,-28.8
2022-10-02T02:47:19.680Z,-28.7
2022-10-02T02:49:20.851Z,-28.7
2022-10-02T02:51:22.648Z,-29
2022-10-02T02:53:23.593Z,-28.8
2022-10-02T02:55:24.697Z,-28.6
2022-10-02T02:57:26.521Z,-29
2022-10-02T02:59:28.211Z,-28.6
2022-10-02T03:01:29.213Z,-28.3
2022-10-02T03:03:30.727Z,-28.4
2022-10-02T03:05:32.287Z,-28.7
2022-10-02T03:07:34.001Z,-28.7
2022-10-02T03:09:35.410Z,-28.5
2022-10-02T03:11:36.378Z,-28.6
2022-10-02T03:15:39.395Z,-28.4
2022-10-02T03:17:40.338Z,-28.4
2022-10-02T03:19:41.886Z,-28.3
2022-10-02T03:21:43.064Z,-27.2
2022-10-02T03:23:44.621Z,-27.3
2022-10-02T03:25:46.296Z,-27.1
2022-10-02T03:27:48.188Z,-27.5
2022-10-02T03:29:49.255Z,-27
2022-10-02T03:31:51.058Z,-27.3
2022-10-02T03:35:53.991Z,-27
2022-10-02T03:37:55.764Z,-27.2
2022-10-02T03:39:57.397Z,-27.4
2022-10-02T03:41:58.433Z,-27.2
2022-10-02T03:43:59.761Z,-27.3
2022-10-02T03:46:01.203Z,-27.5
2022-10-02T03:48:02.313Z,-27.4
2022-10-02T03:54:06.135Z,-27.3
2022-10-02T03:56:07.588Z,-27.2
2022-10-02T03:58:08.638Z,-27.5
2022-10-02T04:00:10.230Z,-27.5
2022-10-02T04:02:11.511Z,-27.4
2022-10-02T04:04:12.756Z,-27.4
2022-10-02T04:08:16.459Z,-27.6
2022-10-02T04:10:17.603Z,-27.6
2022-10-02T04:12:18.974Z,-27.4
2022-10-02T04:14:20.133Z,-27.6
2022-10-02T04:16:21.494Z,-27.6
2022-10-02T04:18:23.161Z,-27.7
2022-10-02T04:20:24.093Z,-27.9
2022-10-02T04:22:25.239Z,-27.5
2022-10-02T04:24:26.841Z,-27.7
2022-10-02T04:26:28.541Z,-26.5
2022-10-02T04:28:30.412Z,-26.4
2022-10-02T04:30:31.861Z,-26.1
2022-10-02T04:32:32.778Z,-26.4
2022-10-02T04:36:35.423Z,-26.2
2022-10-02T04:38:37.066Z,-26.2
2022-10-02T04:40:38.872Z,-26.2
2022-10-02T04:42:40.368Z,-26.2
2022-10-02T04:44:41.965Z,-26.3
2022-10-02T04:46:43.097Z,-26.1
2022-10-02T04:48:44.822Z,-25.9
2022-10-02T04:50:45.896Z,-26.2
2022-10-02T04:52:47.593Z,-26
2022-10-02T04:54:48.674Z,-26
2022-10-02T04:56:49.694Z,-26.2
2022-10-02T04:58:51.367Z,-26.1
2022-10-02T05:00:53.110Z,-26.2
2022-10-02T05:02:54.948Z,-26.2
2022-10-02T05:04:56.410Z,-26.1
2022-10-02T05:08:59.848Z,-26.1
2022-10-02T05:11:01.393Z,-26
2022-10-02T05:13:02.924Z,-26
2022-10-02T05:15:04.709Z,-26.3
2022-10-02T05:21:08.282Z,-26.2
2022-10-02T05:23:09.942Z,-26.3
2022-10-02T05:25:11.342Z,-26.2
2022-10-02T05:27:12.941Z,-26.1
2022-10-02T05:29:14.151Z,-26.2
2022-10-02T05:31:15.527Z,-26.5
2022-10-02T05:33:16.818Z,-26.1
2022-10-02T05:35:18.077Z,-26.3
2022-10-02T05:37:19.890Z,-26.2
2022-10-02T05:39:21.538Z,-26.2
2022-10-02T05:41:23.189Z,-26.3
2022-10-02T05:43:24.947Z,-26.6
2022-10-02T05:45:26.609Z,-26.1
2022-10-02T05:47:28.439Z,-26.1
2022-10-02T05:49:29.723Z,-26.1
2022-10-02T05:51:31.537Z,-26.1
2022-10-02T05:53:33.232Z,-26.3
2022-10-02T05:55:34.306Z,-26
2022-10-02T05:57:35.291Z,-26.3
2022-10-02T05:59:36.754Z,-26.3
2022-10-02T06:01:38.467Z,-25.8
2022-10-02T06:03:40.016Z,-26.3
2022-10-02T06:05:41.263Z,-26.2
2022-10-02T06:07:42.924Z,-26
2022-10-02T06:09:44.109Z,-26
2022-10-02T06:11:45.396Z,-26.5
2022-10-02T06:13:46.712Z,-26.1
2022-10-02T06:19:50.549Z,-26.6
2022-10-02T06:21:51.957Z,-26
2022-10-02T06:23:53.783Z,-26.1
2022-10-02T06:25:55.309Z,-26.1
2022-10-02T06:27:56.551Z,-26.2
2022-10-02T06:29:58.171Z,-26.2
2022-10-02T06:32:00.008Z,-26.2
2022-10-02T06:34:01.293Z,-26.4
2022-10-02T06:36:02.758Z,-26.3
2022-10-02T06:40:05.555Z,-26.4
2022-10-02T06:42:06.756Z,-26.1
2022-10-02T06:44:08.184Z,-26.1
2022-10-02T06:46:52.903Z,-26.3
2022-10-02T06:48:54.577Z,-26.2
2022-10-02T06:50:55.602Z,-26.1
2022-10-02T06:54:58.430Z,-26.1
2022-10-02T06:56:59.362Z,-26
2022-10-02T06:59:00.501Z,-26.1
2022-10-02T07:01:02.087Z,-26.5
2022-10-02T07:03:03.061Z,-26.5
2022-10-02T07:05:04.156Z,-25.9
2022-10-02T07:07:05.246Z,-26
2022-10-02T07:09:06.070Z,-25.9
2022-10-02T07:11:07.609Z,-26.3
2022-10-02T07:13:08.587Z,-26.3
2022-10-02T07:15:10.110Z,-26.1
2022-10-02T07:17:11.763Z,-26.1
2022-10-02T07:19:12.764Z,-26.2
2022-10-02T07:21:14.303Z,-26.3
2022-10-02T07:23:15.215Z,-26
2022-10-02T07:27:18.099Z,-26.1
2022-10-02T07:29:19.781Z,-26.3
2022-10-02T07:31:21.694Z,-26
2022-10-02T07:33:25.347Z,-26.3
2022-10-02T07:39:28.056Z,-26
2022-10-02T07:41:29.478Z,-26.3
2022-10-02T07:43:30.446Z,-26.5
2022-10-02T07:45:32.336Z,-26.3
2022-10-02T07:47:34.035Z,-26.4
2022-10-02T07:49:35.807Z,-26.5
2022-10-02T07:51:37.235Z,-26.1
2022-10-02T07:53:38.985Z,-26.3
2022-10-02T07:55:40.503Z,-26.2
2022-10-02T07:57:42.062Z,-26.1
2022-10-02T07:59:43.511Z,-25.1
2022-10-02T08:01:45.233Z,-24.2
2022-10-02T08:03:46.099Z,-25
2022-10-02T08:05:47.556Z,-22.8
2022-10-02T08:07:48.484Z,-25.4
2022-10-02T08:09:50.318Z,-25.9
2022-10-02T08:11:51.956Z,-26
2022-10-02T08:13:53.232Z,-26
2022-10-02T08:15:54.133Z,-25.3
2022-10-02T08:17:57.111Z,-24.4
2022-10-02T08:21:58.553Z,-26
2022-10-02T08:24:00.050Z,-26.3
2022-10-02T08:26:01.691Z,-25.5
2022-10-02T08:28:03.193Z,-25.8
2022-10-02T08:30:04.208Z,-23.5
2022-10-02T08:32:05.290Z,-24.6
2022-10-02T08:34:06.459Z,-25.2
2022-10-02T08:36:08.200Z,-23.9
2022-10-02T08:38:09.575Z,-25.3
2022-10-02T08:40:11.029Z,-22.6
2022-10-02T08:42:12.132Z,-22
2022-10-02T08:44:13.953Z,-24.1
2022-10-02T08:46:15.192Z,-16.4
2022-10-02T08:48:16.262Z,-14.7
2022-10-02T08:50:17.773Z,-16.6
2022-10-02T08:54:20.499Z,-16.5
2022-10-02T08:56:21.422Z,-17.2
2022-10-02T08:58:23.058Z,-22.7
2022-10-02T09:00:24.593Z,-22.7
2022-10-02T09:02:26.090Z,-24.6
2022-10-02T09:04:27.130Z,-26.2
2022-10-02T09:06:28.074Z,-26.1
2022-10-02T09:08:29.347Z,-23.7
2022-10-02T09:10:30.634Z,-21.8
2022-10-02T09:14:32.727Z,-13.4
2022-10-02T09:16:34.508Z,-16.29
2022-10-02T09:18:35.191Z,-15.1
2022-10-02T09:20:36.918Z,-14.1
2022-10-02T09:22:38.386Z,-5.5
2022-10-02T09:24:40.033Z,-2.5
2022-10-02T09:26:41.662Z,7.6
2022-10-02T09:28:42.754Z,3.7
2022-10-02T09:30:44.188Z,-4.1
2022-10-02T09:32:45.106Z,-16.79
2022-10-02T09:34:46.555Z,-17.29
2022-10-02T09:36:48.378Z,-17.79
2022-10-02T09:38:49.307Z,-10.8
2022-10-02T09:40:50.638Z,-11
2022-10-02T09:42:51.702Z,-4.9
2022-10-02T09:44:52.673Z,4.19
2022-10-02T09:46:54.028Z,6.5
2022-10-02T09:48:55.751Z,4.8
2022-10-02T09:52:58.680Z,-7.3
2022-10-02T09:55:00.088Z,-17.9
2022-10-02T09:57:01.479Z,-18
2022-10-02T09:59:02.812Z,-22.5
2022-10-02T10:03:05.591Z,-23
2022-10-02T10:09:10.725Z,-26.2
2022-10-02T10:11:12.471Z,-26.2
2022-10-02T10:13:13.897Z,-26.2
2022-10-02T10:15:14.856Z,-25.9
2022-10-02T10:17:16.292Z,-26.1
2022-10-02T10:19:18.130Z,-26
2022-10-02T10:21:19.601Z,-25.8
2022-10-02T10:23:21.488Z,-20.6
2022-10-02T10:25:23.387Z,-15.6
2022-10-02T10:27:24.376Z,-4.9
2022-10-02T10:29:26.104Z,-12.4
2022-10-02T10:33:28.986Z,5.3
2022-10-02T10:35:30.456Z,-1.6
2022-10-02T10:37:31.533Z,-4.9
2022-10-02T10:39:32.658Z,-8.39
2022-10-02T10:41:34.495Z,-7.8
2022-10-02T10:45:37.028Z,-22.4
2022-10-02T10:47:38.231Z,-23
2022-10-02T10:49:39.206Z,-25.4
2022-10-02T10:51:40.513Z,-26.3
2022-10-02T10:53:41.515Z,-26.1
2022-10-02T10:55:42.593Z,-26.2
2022-10-02T11:01:47.170Z,-22.9
2022-10-02T11:03:48.817Z,-23.5
2022-10-02T11:05:50.041Z,-25
2022-10-02T11:07:51.447Z,-23
2022-10-02T11:09:52.686Z,-25.4
2022-10-02T11:11:54.388Z,-25.7
2022-10-02T11:13:55.672Z,-26.1
2022-10-02T11:15:56.953Z,-26.2
2022-10-02T11:17:58.455Z,-26.1
2022-10-02T11:22:01.768Z,-24.5
2022-10-02T11:24:03.149Z,-21.8
2022-10-02T11:26:04.318Z,-21.2
2022-10-02T11:28:05.397Z,-22.9
2022-10-02T11:32:07.742Z,-22.8
2022-10-02T11:34:09.233Z,-24.3
2022-10-02T11:36:10.427Z,-21.9
2022-10-02T11:38:11.969Z,-21.7
2022-10-02T11:44:16.444Z,-20.7
2022-10-02T11:46:18.117Z,-13.3
2022-10-02T11:48:19.102Z,-3
2022-10-02T11:50:20.630Z,-4.1
2022-10-02T11:52:22.211Z,1
2022-10-02T11:54:23.555Z,9.7
2022-10-02T11:58:25.685Z,-16.1
2022-10-02T12:00:27.393Z,-23.5
2022-10-02T12:02:28.584Z,-23.5
2022-10-02T12:04:29.519Z,-22.9
2022-10-02T12:10:33.683Z,-15.5
2022-10-02T12:12:35.331Z,-15.5
2022-10-02T12:14:36.572Z,-15.7
2022-10-02T12:16:38.240Z,-17.2
2022-10-02T12:18:40.002Z,-23.2
2022-10-02T12:20:41.482Z,-22.6
2022-10-02T12:22:43.225Z,-20.9
2022-10-02T12:24:44.845Z,-24.9
2022-10-02T12:26:45.871Z,-26.3
2022-10-02T12:28:47.176Z,-26.4
2022-10-02T12:30:48.082Z,-23.1
2022-10-02T12:32:49.514Z,-21.9
2022-10-02T12:34:51.270Z,-16
2022-10-02T12:36:52.644Z,-17.29
2022-10-02T12:38:54.197Z,-16.7
2022-10-02T12:40:55.099Z,-16.4
2022-10-02T12:42:56.905Z,-17
2022-10-02T12:44:57.956Z,-16.79
2022-10-02T12:46:59.194Z,-15.7
2022-10-02T12:49:01.027Z,-11.1
2022-10-02T12:51:05.368Z,-17.5
2022-10-02T12:53:03.488Z,-14.7
2022-10-02T12:55:04.872Z,-14.2
2022-10-02T12:57:06.573Z,-15.7
2022-10-02T12:59:08.107Z,-16.29
2022-10-02T13:01:09.534Z,-16.2
2022-10-02T13:03:10.848Z,-16
2022-10-02T13:05:12.456Z,-10.1
2022-10-02T13:07:13.553Z,-7.9
2022-10-02T13:09:14.680Z,-15
2022-10-02T13:11:15.615Z,-15.9
2022-10-02T13:13:16.560Z,-23
2022-10-02T13:15:18.052Z,-24.4
2022-10-02T13:17:19.352Z,-25.7
2022-10-02T13:19:21.059Z,-26.3
2022-10-02T13:25:25.424Z,-24.4
2022-10-02T13:27:30.764Z,-24.6
2022-10-02T13:29:28.598Z,-24.1
2022-10-02T13:34:15.425Z,-24.6
2022-10-02T13:36:16.733Z,-25.8
2022-10-02T13:38:17.955Z,-26.1
2022-10-02T13:40:19.593Z,-26.1
2022-10-02T13:46:23.678Z,-23
2022-10-02T13:48:24.598Z,-15.2
2022-10-02T13:50:25.658Z,-15.7
2022-10-02T13:52:26.919Z,-16
2022-10-02T13:54:28.125Z,-16.7
2022-10-02T13:56:29.238Z,-23.5
2022-10-02T14:00:31.839Z,-26
2022-10-02T14:02:33.637Z,-25
2022-10-02T14:04:35.403Z,-20.8
2022-10-02T14:06:37.082Z,-24.5
2022-10-02T14:08:38.249Z,-26
2022-10-02T14:10:39.830Z,-26.1
2022-10-02T14:12:41.685Z,-26.3
2022-10-02T14:16:45.246Z,-24.2
2022-10-02T14:18:46.724Z,-22.7
2022-10-02T14:20:47.957Z,-22.4
2022-10-02T14:22:49.084Z,-25.7
2022-10-02T14:24:50.300Z,-25.7
2022-10-02T14:26:51.295Z,-24.9
2022-10-02T14:28:52.248Z,-23.9
2022-10-02T14:30:53.322Z,-24.3
2022-10-02T14:32:54.576Z,-23.6
2022-10-02T14:34:56.001Z,-22.8
2022-10-02T14:36:57.447Z,-25
2022-10-02T14:38:59.163Z,-26.2
2022-10-02T14:41:00.758Z,-26.3
2022-10-02T14:45:03.463Z,-26
2022-10-02T14:47:04.706Z,-26.3
2022-10-02T14:49:05.968Z,-26.1
2022-10-02T14:51:07.495Z,-26.1
2022-10-02T14:53:08.744Z,-26
2022-10-02T14:55:10.061Z,-26
2022-10-02T14:59:12.766Z,-26.3
2022-10-02T15:01:14.190Z,-26.2
2022-10-02T15:03:15.348Z,-26.2
2022-10-02T15:05:16.803Z,-26.4
2022-10-02T15:07:17.692Z,-26.3
2022-10-02T15:09:19.014Z,-26
2022-10-02T15:11:20.405Z,-26.3
2022-10-02T15:13:21.861Z,-26.2
2022-10-02T15:15:22.907Z,-26.5
2022-10-02T15:17:24.025Z,-26.2
2022-10-02T15:19:25.621Z,-26.3
2022-10-02T15:21:27.374Z,-26.3
2022-10-02T15:23:29.196Z,-26
2022-10-02T15:25:30.273Z,20.7
2022-10-02T15:27:32.028Z,-26.1
2022-10-02T15:31:34.318Z,-26.5
2022-10-02T15:33:35.550Z,-26
2022-10-02T15:35:36.630Z,-26.3
2022-10-02T15:37:38.202Z,-26.2
2022-10-02T15:41:40.697Z,-26.1
2022-10-02T15:43:41.987Z,-26.3
2022-10-02T15:45:43.163Z,-26.1
2022-10-02T15:47:44.385Z,-26.1
2022-10-02T15:51:46.662Z,-25.9
2022-10-02T15:53:47.681Z,-26.1
2022-10-02T15:55:48.686Z,-26.5
2022-10-02T15:57:49.833Z,-26.3
2022-10-02T15:59:51.367Z,-26.1
2022-10-02T16:01:52.683Z,-26.3
2022-10-02T16:03:53.797Z,-26.2
2022-10-02T16:05:55.415Z,-26.2
2022-10-02T16:07:56.916Z,-26.3
2022-10-02T16:09:58.657Z,-26.1
2022-10-02T16:14:01.252Z,-26.3
2022-10-02T16:16:02.851Z,-26
2022-10-02T16:18:04.423Z,-26.1
2022-10-02T16:20:05.915Z,-26.4
2022-10-02T16:26:09.357Z,-26.3
2022-10-02T16:28:10.640Z,-26
2022-10-02T16:30:12.370Z,-26
2022-10-02T16:32:13.543Z,-26.2
2022-10-02T16:34:15.414Z,-26.1
2022-10-02T16:36:17.089Z,-26.1
2022-10-02T16:38:18.273Z,-26
2022-10-02T16:40:20.160Z,-26.5
2022-10-02T16:42:21.167Z,-26.2
2022-10-02T16:44:22.572Z,-26.2
2022-10-02T16:46:23.747Z,-26.4
2022-10-02T16:48:25.199Z,-26.1
2022-10-02T16:50:26.599Z,-25.9
2022-10-02T16:52:28.429Z,-26.1
2022-10-02T16:54:30.198Z,-26.1
2022-10-02T16:56:32.558Z,-26.3
2022-10-02T16:58:32.899Z,-26.1
2022-10-02T17:00:34.257Z,-26
2022-10-02T17:02:35.995Z,-26.2
2022-10-02T17:08:40.217Z,-26.2
2022-10-02T17:10:41.394Z,-26.2
2022-10-02T17:12:42.793Z,-26.2
2022-10-02T17:14:43.796Z,-26.1
2022-10-02T17:16:44.954Z,-26.3
2022-10-02T17:18:46.144Z,-26.3
2022-10-02T17:24:50.255Z,-26.2
2022-10-02T17:26:51.298Z,-26.1
2022-10-02T17:28:52.610Z,-26.1
2022-10-02T17:30:54.040Z,-26.2
2022-10-02T17:32:55.434Z,-26.1
2022-10-02T17:34:56.705Z,-26
2022-10-02T17:38:58.964Z,-26.3
2022-10-02T17:41:00.045Z,-26.2
2022-10-02T17:43:01.634Z,-26.3
2022-10-02T17:45:03.357Z,-26.2
2022-10-02T17:51:23.501Z,-26.1
2022-10-02T17:53:09.193Z,-26.2
2022-10-02T17:55:10.120Z,-26
2022-10-02T17:57:11.704Z,-25.9
2022-10-02T17:59:12.920Z,-26.2
2022-10-02T18:01:14.452Z,-26.2
2022-10-02T18:03:16.089Z,-26.2
2022-10-02T18:05:18.009Z,-26.1
2022-10-02T18:07:19.093Z,-26.2
2022-10-02T18:09:20.542Z,-26
2022-10-02T18:11:21.774Z,-26.1
2022-10-02T18:13:23.047Z,-26.2
2022-10-02T18:15:24.433Z,-26.4
2022-10-02T18:17:25.861Z,-26.2
2022-10-02T18:19:27.340Z,-26.4
2022-10-02T18:21:28.652Z,-26.2
2022-10-02T18:23:29.670Z,-26.3
2022-10-02T18:25:30.563Z,-26.1
2022-10-02T18:27:31.862Z,-25.8
2022-10-02T18:29:33.233Z,-26.5
2022-10-02T18:31:54.433Z,-26.1
2022-10-02T18:33:35.557Z,-26.2
2022-10-02T18:35:37.463Z,-26.1
2022-10-02T18:37:39.195Z,-26.3
2022-10-02T18:39:40.589Z,-26
2022-10-02T18:41:41.897Z,-26
2022-10-02T18:43:42.963Z,-26.2
2022-10-02T18:45:43.903Z,-26.2
2022-10-02T18:49:46.986Z,-26.1
2022-10-02T18:51:47.969Z,-26.3
2022-10-02T18:53:48.932Z,-26.5
2022-10-02T18:55:50.545Z,-26.4
2022-10-02T18:57:52.208Z,-26.1
2022-10-02T18:59:54.062Z,-26.1
2022-10-02T19:05:57.620Z,-26
2022-10-02T19:07:58.843Z,-26
2022-10-02T19:10:00.526Z,-26.2
2022-10-02T19:12:02.454Z,-26.2
2022-10-02T19:14:03.458Z,-26.2
2022-10-02T19:16:05.254Z,-26.2
2022-10-02T19:18:06.738Z,-25.9
2022-10-02T19:20:07.932Z,-26.1
2022-10-02T19:22:09.699Z,-25.9
2022-10-02T19:26:12.408Z,-26.2
2022-10-02T19:28:13.531Z,-26.1
2022-10-02T19:30:15.207Z,-26.3
2022-10-02T19:32:16.244Z,-26.1
2022-10-02T19:34:18.015Z,-26.1
2022-10-02T19:36:19.197Z,-26.4
2022-10-02T19:38:20.522Z,-26.1
2022-10-02T19:40:21.688Z,-25.9
2022-10-02T19:42:23.081Z,-26.1
2022-10-02T19:48:27.415Z,-26.5
2022-10-02T19:50:29.097Z,-26
2022-10-02T19:52:30.378Z,-26.3
2022-10-02T19:54:31.342Z,-26
2022-10-02T19:56:33.189Z,-26.2
2022-10-02T19:58:34.666Z,-26.3
2022-10-02T20:02:37.496Z,-26.1
2022-10-02T20:04:38.544Z,-26.3
2022-10-02T20:06:39.762Z,-26.1
2022-10-02T20:08:41.248Z,-26.4
2022-10-02T20:10:42.318Z,-26.2
2022-10-02T20:14:45.426Z,-26.2
2022-10-02T20:15:29.295Z,-26
2022-10-02T20:19:32.086Z,-26.2
2022-10-02T20:25:36.518Z,-26.3
2022-10-02T20:27:37.679Z,-26.1
2022-10-02T20:29:40.648Z,-26
2022-10-02T20:31:40.597Z,-26.1
2022-10-02T20:33:41.645Z,-26.2
2022-10-02T20:35:43.565Z,-26
2022-10-02T20:37:44.876Z,-26.3
2022-10-02T20:39:46.123Z,-26.3
2022-10-02T20:41:47.777Z,-26.1
2022-10-02T20:43:49.621Z,-26.1
2022-10-02T20:45:52.422Z,-26.5
2022-10-02T20:47:52.176Z,-26.2
2022-10-02T20:49:53.668Z,-26.2
2022-10-02T20:51:55.098Z,-26
2022-10-02T20:53:56.521Z,-26.2
2022-10-02T20:55:57.622Z,-26.2
2022-10-02T20:58:00.935Z,-26.2
2022-10-02T21:00:00.883Z,-26.2
2022-10-02T21:02:02.856Z,-26.2
2022-10-02T21:06:05.915Z,-26.2
2022-10-02T21:08:07.203Z,-26.3
2022-10-02T21:10:08.218Z,-25.9
2022-10-02T21:12:09.603Z,-26.5
2022-10-02T21:14:11.407Z,-25.9
2022-10-02T21:16:13.935Z,-26.3
2022-10-02T21:18:14.083Z,-26.2
2022-10-02T21:24:18.961Z,-26.2
2022-10-02T21:26:20.379Z,-26.2
2022-10-02T21:28:21.856Z,-26.3
2022-10-02T21:30:23.173Z,-26.1
2022-10-02T21:32:24.538Z,-26
2022-10-02T21:34:26.040Z,-26.2
2022-10-02T21:36:27.287Z,-26
2022-10-02T21:38:29.147Z,-26.4
2022-10-02T21:40:30.991Z,-26.3
2022-10-02T21:44:33.535Z,-26.7
2022-10-02T21:46:35.168Z,-26.2
2022-10-02T21:48:36.833Z,-26.2
2022-10-02T21:50:37.929Z,-26.2
2022-10-02T21:54:40.580Z,-26.5
2022-10-02T21:56:42.380Z,-26.3
2022-10-02T21:58:43.822Z,-26.1
2022-10-02T22:00:54.296Z,-26.4
2022-10-02T22:06:53.819Z,-26.3
2022-10-02T22:08:50.930Z,-26.1
2022-10-02T22:10:52.257Z,-26.3
2022-10-02T22:14:54.591Z,-26
2022-10-02T22:16:56.062Z,-26.2
2022-10-02T22:18:57.113Z,-26.1
2022-10-02T22:20:58.876Z,-26.1
2022-10-02T22:22:59.989Z,-26.2
2022-10-02T22:25:01.253Z,-25.9
2022-10-02T22:27:02.508Z,-26.3
2022-10-02T22:29:04.057Z,-26.2
2022-10-02T22:33:07.466Z,-26.1
2022-10-02T22:37:10.265Z,-26.2
2022-10-02T22:39:11.725Z,-26.2
2022-10-02T22:41:13.014Z,-26.3
2022-10-02T22:43:14.255Z,-26.2
2022-10-02T22:49:19.127Z,-26.2
2022-10-02T22:51:20.279Z,-26.3
2022-10-02T22:53:21.230Z,-26.3
2022-10-02T22:55:22.647Z,-26
2022-10-02T22:57:27.800Z,-26.2
2022-10-02T22:59:26.289Z,-26.6
2022-10-02T23:01:28.092Z,-26.2
2022-10-02T23:03:29.474Z,-26.2
2022-10-02T23:05:30.645Z,-26
2022-10-02T23:07:31.629Z,-26
2022-10-02T23:11:34.759Z,-26.3
2022-10-02T23:13:36.177Z,-26
2022-10-02T23:15:38.064Z,-26.1
2022-10-02T23:17:39.176Z,-26.2
2022-10-02T23:21:45.545Z,-26.4
2022-10-02T23:23:43.994Z,-26
2022-10-02T23:25:45.424Z,-26.5
2022-10-02T23:27:46.808Z,-26.3
2022-10-02T23:33:51.956Z,-26.3
2022-10-02T23:35:53.321Z,-26.3
2022-10-02T23:37:54.309Z,-26.4
2022-10-02T23:41:57.304Z,-26.1
2022-10-02T23:43:59.177Z,-26.4
2022-10-02T23:48:02.729Z,-26.2
2022-10-02T23:50:04.369Z,-26.3
2022-10-02T23:52:05.277Z,-26.5
2022-10-02T23:54:06.714Z,-26.3
2022-10-02T23:58:13.246Z,-26.3
